sensor_id;sensor_type;location;lat;lon;timestamp;temperature;humidity
41953;DHT22;63613;28.200;112.870;2023-01-19T00:00:33;9.50;53.10
41953;DHT22;63613;28.200;112.870;2023-01-19T00:03:00;9.60;53.10
41953;DHT22;63613;28.200;112.870;2023-01-19T00:05:47;9.60;53.00
41953;DHT22;63613;28.200;112.870;2023-01-19T00:08:13;9.60;53.00
41953;DHT22;63613;28.200;112.870;2023-01-19T00:10:43;9.60;53.00
41953;DHT22;63613;28.200;112.870;2023-01-19T00:13:13;9.60;53.00
41953;DHT22;63613;28.200;112.870;2023-01-19T00:15:40;9.60;53.10
41953;DHT22;63613;28.200;112.870;2023-01-19T00:18:07;9.60;53.00
41953;DHT22;63613;28.200;112.870;2023-01-19T00:20:34;9.60;53.00
41953;DHT22;63613;28.200;112.870;2023-01-19T00:23:03;9.70;53.00
41953;DHT22;63613;28.200;112.870;2023-01-19T00:25:32;9.70;53.00
41953;DHT22;63613;28.200;112.870;2023-01-19T00:28:00;9.70;53.00
41953;DHT22;63613;28.200;112.870;2023-01-19T00:30:27;9.70;52.90
41953;DHT22;63613;28.200;112.870;2023-01-19T00:32:54;9.60;52.90
41953;DHT22;63613;28.200;112.870;2023-01-19T00:35:21;9.70;52.90
41953;DHT22;63613;28.200;112.870;2023-01-19T00:37:47;9.70;52.90
41953;DHT22;63613;28.200;112.870;2023-01-19T00:40:14;9.70;52.80
41953;DHT22;63613;28.200;112.870;2023-01-19T00:42:41;9.70;52.80
41953;DHT22;63613;28.200;112.870;2023-01-19T00:45:18;9.70;52.80
41953;DHT22;63613;28.200;112.870;2023-01-19T00:47:47;9.70;52.80
41953;DHT22;63613;28.200;112.870;2023-01-19T00:50:15;9.70;52.80
41953;DHT22;63613;28.200;112.870;2023-01-19T00:52:43;9.70;52.80
41953;DHT22;63613;28.200;112.870;2023-01-19T00:55:12;9.70;52.80
41953;DHT22;63613;28.200;112.870;2023-01-19T00:57:43;9.70;52.90
41953;DHT22;63613;28.200;112.870;2023-01-19T01:00:12;9.70;52.90
41953;DHT22;63613;28.200;112.870;2023-01-19T01:02:41;9.70;52.90
41953;DHT22;63613;28.200;112.870;2023-01-19T01:05:09;9.70;52.90
41953;DHT22;63613;28.200;112.870;2023-01-19T01:07:37;9.70;52.90
41953;DHT22;63613;28.200;112.870;2023-01-19T01:10:14;9.70;52.90
41953;DHT22;63613;28.200;112.870;2023-01-19T01:12:41;9.70;53.00
41953;DHT22;63613;28.200;112.870;2023-01-19T01:15:13;9.70;53.00
41953;DHT22;63613;28.200;112.870;2023-01-19T01:17:41;9.70;53.00
41953;DHT22;63613;28.200;112.870;2023-01-19T01:20:13;9.70;53.00
41953;DHT22;63613;28.200;112.870;2023-01-19T01:22:46;9.70;53.00
41953;DHT22;63613;28.200;112.870;2023-01-19T01:25:15;9.70;53.10
41953;DHT22;63613;28.200;112.870;2023-01-19T01:27:42;9.70;53.10
41953;DHT22;63613;28.200;112.870;2023-01-19T01:30:13;9.70;53.10
41953;DHT22;63613;28.200;112.870;2023-01-19T01:32:40;9.70;53.10
41953;DHT22;63613;28.200;112.870;2023-01-19T01:35:08;9.70;53.10
41953;DHT22;63613;28.200;112.870;2023-01-19T01:37:36;9.70;53.10
41953;DHT22;63613;28.200;112.870;2023-01-19T01:40:04;9.70;53.20
41953;DHT22;63613;28.200;112.870;2023-01-19T01:42:32;9.70;53.20
41953;DHT22;63613;28.200;112.870;2023-01-19T01:45:03;9.80;53.20
41953;DHT22;63613;28.200;112.870;2023-01-19T01:47:40;9.70;53.20
41953;DHT22;63613;28.200;112.870;2023-01-19T01:50:14;9.70;53.20
41953;DHT22;63613;28.200;112.870;2023-01-19T01:55:27;9.70;53.30
41953;DHT22;63613;28.200;112.870;2023-01-19T01:57:58;9.80;53.40
41953;DHT22;63613;28.200;112.870;2023-01-19T02:00:27;9.70;53.40
41953;DHT22;63613;28.200;112.870;2023-01-19T02:03:14;9.70;53.40
41953;DHT22;63613;28.200;112.870;2023-01-19T02:05:41;9.80;53.40
41953;DHT22;63613;28.200;112.870;2023-01-19T02:08:30;9.70;53.50
41953;DHT22;63613;28.200;112.870;2023-01-19T02:11:16;9.70;53.50
41953;DHT22;63613;28.200;112.870;2023-01-19T02:14:04;9.80;53.60
41953;DHT22;63613;28.200;112.870;2023-01-19T02:16:33;9.80;53.70
41953;DHT22;63613;28.200;112.870;2023-01-19T02:19:00;9.80;53.70
41953;DHT22;63613;28.200;112.870;2023-01-19T02:22:43;9.80;53.70
41953;DHT22;63613;28.200;112.870;2023-01-19T02:24:49;9.80;53.70
41953;DHT22;63613;28.200;112.870;2023-01-19T02:27:16;9.80;53.70
41953;DHT22;63613;28.200;112.870;2023-01-19T02:29:43;9.80;53.70
41953;DHT22;63613;28.200;112.870;2023-01-19T02:32:10;9.80;53.70
41953;DHT22;63613;28.200;112.870;2023-01-19T02:34:57;9.80;53.70
41953;DHT22;63613;28.200;112.870;2023-01-19T02:37:24;9.80;53.80
41953;DHT22;63613;28.200;112.870;2023-01-19T02:39:55;9.80;53.80
41953;DHT22;63613;28.200;112.870;2023-01-19T02:42:28;9.80;53.80
41953;DHT22;63613;28.200;112.870;2023-01-19T02:44:57;9.90;53.80
41953;DHT22;63613;28.200;112.870;2023-01-19T02:47:25;9.90;53.80
41953;DHT22;63613;28.200;112.870;2023-01-19T02:49:56;9.90;53.80
41953;DHT22;63613;28.200;112.870;2023-01-19T02:52:23;9.90;53.70
41953;DHT22;63613;28.200;112.870;2023-01-19T02:58:02;9.90;53.80
41953;DHT22;63613;28.200;112.870;2023-01-19T03:06:11;9.90;53.90
41953;DHT22;63613;28.200;112.870;2023-01-19T03:08:55;9.90;53.90
41953;DHT22;63613;28.200;112.870;2023-01-19T03:11:32;9.90;54.00
41953;DHT22;63613;28.200;112.870;2023-01-19T03:14:12;9.90;54.00
41953;DHT22;63613;28.200;112.870;2023-01-19T03:19:41;9.90;53.80
41953;DHT22;63613;28.200;112.870;2023-01-19T03:22:21;9.90;53.80
41953;DHT22;63613;28.200;112.870;2023-01-19T03:24:50;9.90;53.80
41953;DHT22;63613;28.200;112.870;2023-01-19T03:27:39;9.90;53.90
41953;DHT22;63613;28.200;112.870;2023-01-19T03:30:15;9.90;53.80
41953;DHT22;63613;28.200;112.870;2023-01-19T03:33:12;10.00;53.80
41953;DHT22;63613;28.200;112.870;2023-01-19T03:35:53;10.00;53.70
41953;DHT22;63613;28.200;112.870;2023-01-19T03:38:26;10.00;53.70
41953;DHT22;63613;28.200;112.870;2023-01-19T03:40:59;10.00;53.70
41953;DHT22;63613;28.200;112.870;2023-01-19T03:43:28;10.00;53.80
41953;DHT22;63613;28.200;112.870;2023-01-19T03:45:57;10.00;53.90
41953;DHT22;63613;28.200;112.870;2023-01-19T03:48:24;10.00;53.80
41953;DHT22;63613;28.200;112.870;2023-01-19T03:51:12;10.00;53.70
41953;DHT22;63613;28.200;112.870;2023-01-19T03:53:40;10.10;53.60
41953;DHT22;63613;28.200;112.870;2023-01-19T03:56:18;10.00;53.50
41953;DHT22;63613;28.200;112.870;2023-01-19T03:58:46;10.10;53.50
41953;DHT22;63613;28.200;112.870;2023-01-19T04:01:13;10.10;53.50
41953;DHT22;63613;28.200;112.870;2023-01-19T04:03:41;10.10;53.60
41953;DHT22;63613;28.200;112.870;2023-01-19T04:06:08;10.10;53.50
41953;DHT22;63613;28.200;112.870;2023-01-19T04:08:35;10.10;53.50
41953;DHT22;63613;28.200;112.870;2023-01-19T04:11:02;10.10;53.50
41953;DHT22;63613;28.200;112.870;2023-01-19T04:13:29;10.20;53.60
41953;DHT22;63613;28.200;112.870;2023-01-19T04:16:16;10.20;53.60
41953;DHT22;63613;28.200;112.870;2023-01-19T04:18:46;10.20;53.50
41953;DHT22;63613;28.200;112.870;2023-01-19T04:21:13;10.30;53.50
41953;DHT22;63613;28.200;112.870;2023-01-19T04:23:43;10.20;53.60
41953;DHT22;63613;28.200;112.870;2023-01-19T04:26:31;10.20;53.60
41953;DHT22;63613;28.200;112.870;2023-01-19T04:28:58;10.30;53.60
41953;DHT22;63613;28.200;112.870;2023-01-19T04:31:24;10.30;53.70
41953;DHT22;63613;28.200;112.870;2023-01-19T04:33:55;10.30;53.70
41953;DHT22;63613;28.200;112.870;2023-01-19T04:36:22;10.30;53.70
41953;DHT22;63613;28.200;112.870;2023-01-19T04:38:48;10.30;53.70
41953;DHT22;63613;28.200;112.870;2023-01-19T04:41:15;10.40;53.70
41953;DHT22;63613;28.200;112.870;2023-01-19T04:43:42;10.40;53.70
41953;DHT22;63613;28.200;112.870;2023-01-19T04:46:09;10.40;53.80
41953;DHT22;63613;28.200;112.870;2023-01-19T04:48:35;10.40;53.90
41953;DHT22;63613;28.200;112.870;2023-01-19T04:51:02;10.40;53.90
41953;DHT22;63613;28.200;112.870;2023-01-19T04:53:29;10.40;53.90
41953;DHT22;63613;28.200;112.870;2023-01-19T04:56:16;10.40;53.90
41953;DHT22;63613;28.200;112.870;2023-01-19T04:58:43;10.50;53.90
41953;DHT22;63613;28.200;112.870;2023-01-19T05:01:10;10.50;54.00
41953;DHT22;63613;28.200;112.870;2023-01-19T05:03:59;10.50;54.00
41953;DHT22;63613;28.200;112.870;2023-01-19T05:06:46;10.50;54.00
41953;DHT22;63613;28.200;112.870;2023-01-19T05:09:13;10.50;54.00
41953;DHT22;63613;28.200;112.870;2023-01-19T05:11:40;10.60;54.00
41953;DHT22;63613;28.200;112.870;2023-01-19T05:14:07;10.60;53.70
41953;DHT22;63613;28.200;112.870;2023-01-19T05:16:36;10.70;53.60
41953;DHT22;63613;28.200;112.870;2023-01-19T05:19:03;10.70;53.70
41953;DHT22;63613;28.200;112.870;2023-01-19T05:21:30;10.70;53.70
41953;DHT22;63613;28.200;112.870;2023-01-19T05:23:57;10.70;53.80
41953;DHT22;63613;28.200;112.870;2023-01-19T05:26:27;10.70;53.80
41953;DHT22;63613;28.200;112.870;2023-01-19T05:28:53;10.80;53.80
41953;DHT22;63613;28.200;112.870;2023-01-19T05:31:23;10.90;53.70
41953;DHT22;63613;28.200;112.870;2023-01-19T05:33:50;10.90;53.70
41953;DHT22;63613;28.200;112.870;2023-01-19T05:36:17;10.90;53.70
41953;DHT22;63613;28.200;112.870;2023-01-19T05:38:44;11.00;53.80
41953;DHT22;63613;28.200;112.870;2023-01-19T05:41:11;11.00;53.90
41953;DHT22;63613;28.200;112.870;2023-01-19T05:43:37;11.00;53.90
41953;DHT22;63613;28.200;112.870;2023-01-19T05:46:04;11.20;53.80
41953;DHT22;63613;28.200;112.870;2023-01-19T05:48:31;11.30;53.70
41953;DHT22;63613;28.200;112.870;2023-01-19T05:50:59;11.40;53.70
41953;DHT22;63613;28.200;112.870;2023-01-19T05:53:27;11.40;54.20
41953;DHT22;63613;28.200;112.870;2023-01-19T05:56:02;11.40;54.40
41953;DHT22;63613;28.200;112.870;2023-01-19T06:01:18;11.60;54.40
41953;DHT22;63613;28.200;112.870;2023-01-19T06:03:45;11.70;54.50
41953;DHT22;63613;28.200;112.870;2023-01-19T06:06:12;11.80;54.50
41953;DHT22;63613;28.200;112.870;2023-01-19T06:08:40;11.90;54.60
41953;DHT22;63613;28.200;112.870;2023-01-19T06:11:07;12.00;54.60
41953;DHT22;63613;28.200;112.870;2023-01-19T06:13:34;12.10;54.20
41953;DHT22;63613;28.200;112.870;2023-01-19T06:16:02;12.20;54.30
41953;DHT22;63613;28.200;112.870;2023-01-19T06:18:29;12.30;54.30
41953;DHT22;63613;28.200;112.870;2023-01-19T06:20:55;12.50;54.30
41953;DHT22;63613;28.200;112.870;2023-01-19T06:23:26;12.60;54.00
41953;DHT22;63613;28.200;112.870;2023-01-19T06:25:55;12.80;53.90
41953;DHT22;63613;28.200;112.870;2023-01-19T06:28:22;13.00;53.30
41953;DHT22;63613;28.200;112.870;2023-01-19T06:30:51;13.20;53.00
41953;DHT22;63613;28.200;112.870;2023-01-19T06:33:19;13.40;52.80
41953;DHT22;63613;28.200;112.870;2023-01-19T06:35:47;13.50;52.50
41953;DHT22;63613;28.200;112.870;2023-01-19T06:38:15;13.70;52.20
41953;DHT22;63613;28.200;112.870;2023-01-19T06:40:44;13.90;51.70
41953;DHT22;63613;28.200;112.870;2023-01-19T06:43:12;14.10;51.20
41953;DHT22;63613;28.200;112.870;2023-01-19T06:45:39;14.30;50.70
41953;DHT22;63613;28.200;112.870;2023-01-19T06:48:05;14.50;50.10
41953;DHT22;63613;28.200;112.870;2023-01-19T06:50:32;14.90;49.10
41953;DHT22;63613;28.200;112.870;2023-01-19T06:52:59;15.40;48.00
41953;DHT22;63613;28.200;112.870;2023-01-19T06:55:46;15.90;46.50
41953;DHT22;63613;28.200;112.870;2023-01-19T06:58:13;16.40;44.80
41953;DHT22;63613;28.200;112.870;2023-01-19T07:00:41;15.40;46.10
41953;DHT22;63613;28.200;112.870;2023-01-19T07:03:10;14.80;47.00
41953;DHT22;63613;28.200;112.870;2023-01-19T07:05:42;14.60;47.20
41953;DHT22;63613;28.200;112.870;2023-01-19T07:08:09;14.40;47.30
41953;DHT22;63613;28.200;112.870;2023-01-19T07:10:36;14.40;47.30
41953;DHT22;63613;28.200;112.870;2023-01-19T07:13:03;14.30;47.20
41953;DHT22;63613;28.200;112.870;2023-01-19T07:15:29;14.30;47.20
41953;DHT22;63613;28.200;112.870;2023-01-19T07:17:59;14.20;47.30
41953;DHT22;63613;28.200;112.870;2023-01-19T07:20:30;14.10;47.30
41953;DHT22;63613;28.200;112.870;2023-01-19T07:22:57;14.00;47.20
41953;DHT22;63613;28.200;112.870;2023-01-19T07:25:24;14.00;47.10
41953;DHT22;63613;28.200;112.870;2023-01-19T07:27:58;13.90;47.10
41953;DHT22;63613;28.200;112.870;2023-01-19T07:30:25;13.90;47.20
41953;DHT22;63613;28.200;112.870;2023-01-19T07:32:56;13.80;47.20
41953;DHT22;63613;28.200;112.870;2023-01-19T07:35:26;13.80;47.30
41953;DHT22;63613;28.200;112.870;2023-01-19T07:37:55;13.70;47.30
41953;DHT22;63613;28.200;112.870;2023-01-19T07:40:23;13.70;47.30
41953;DHT22;63613;28.200;112.870;2023-01-19T07:42:50;13.60;47.40
41953;DHT22;63613;28.200;112.870;2023-01-19T07:45:37;13.50;47.40
41953;DHT22;63613;28.200;112.870;2023-01-19T07:48:04;13.40;47.50
41953;DHT22;63613;28.200;112.870;2023-01-19T07:50:31;13.40;47.50
41953;DHT22;63613;28.200;112.870;2023-01-19T07:53:04;13.40;47.60
41953;DHT22;63613;28.200;112.870;2023-01-19T07:55:31;13.30;47.60
41953;DHT22;63613;28.200;112.870;2023-01-19T07:57:58;13.30;47.70
41953;DHT22;63613;28.200;112.870;2023-01-19T08:00:25;13.20;47.80
41953;DHT22;63613;28.200;112.870;2023-01-19T08:02:57;13.20;47.90
41953;DHT22;63613;28.200;112.870;2023-01-19T08:05:25;13.10;48.00
41953;DHT22;63613;28.200;112.870;2023-01-19T08:07:55;13.10;48.00
41953;DHT22;63613;28.200;112.870;2023-01-19T08:10:27;13.10;48.10
41953;DHT22;63613;28.200;112.870;2023-01-19T08:12:55;13.00;48.20
41953;DHT22;63613;28.200;112.870;2023-01-19T08:15:22;13.00;48.20
41953;DHT22;63613;28.200;112.870;2023-01-19T08:18:02;13.60;47.20
41953;DHT22;63613;28.200;112.870;2023-01-19T08:20:35;15.10;44.20
41953;DHT22;63613;28.200;112.870;2023-01-19T08:23:01;15.80;42.70
41953;DHT22;63613;28.200;112.870;2023-01-19T08:27:59;16.10;42.00
41953;DHT22;63613;28.200;112.870;2023-01-19T08:30:26;15.70;42.70
41953;DHT22;63613;28.200;112.870;2023-01-19T08:32:55;15.10;44.10
41953;DHT22;63613;28.200;112.870;2023-01-19T08:35:35;14.60;45.30
41953;DHT22;63613;28.200;112.870;2023-01-19T08:38:03;14.40;45.90
41953;DHT22;63613;28.200;112.870;2023-01-19T08:40:33;14.40;46.20
41953;DHT22;63613;28.200;112.870;2023-01-19T08:43:02;14.30;46.40
41953;DHT22;63613;28.200;112.870;2023-01-19T08:45:31;14.30;46.50
41953;DHT22;63613;28.200;112.870;2023-01-19T08:47:58;14.30;46.50
41953;DHT22;63613;28.200;112.870;2023-01-19T08:50:31;14.30;46.40
41953;DHT22;63613;28.200;112.870;2023-01-19T08:53:03;14.30;46.40
41953;DHT22;63613;28.200;112.870;2023-01-19T08:55:34;14.30;46.40
41953;DHT22;63613;28.200;112.870;2023-01-19T08:58:03;14.40;46.40
41953;DHT22;63613;28.200;112.870;2023-01-19T09:00:31;14.30;46.30
41953;DHT22;63613;28.200;112.870;2023-01-19T09:03:04;14.10;46.60
41953;DHT22;63613;28.200;112.870;2023-01-19T09:05:36;13.90;46.80
41953;DHT22;63613;28.200;112.870;2023-01-19T09:08:09;13.80;47.00
41953;DHT22;63613;28.200;112.870;2023-01-19T09:10:37;13.70;47.20
41953;DHT22;63613;28.200;112.870;2023-01-19T09:13:05;13.60;47.30
41953;DHT22;63613;28.200;112.870;2023-01-19T09:15:34;13.50;47.40
41953;DHT22;63613;28.200;112.870;2023-01-19T09:18:08;13.40;47.50
41953;DHT22;63613;28.200;112.870;2023-01-19T09:20:40;13.40;47.70
41953;DHT22;63613;28.200;112.870;2023-01-19T09:23:11;13.30;47.80
41953;DHT22;63613;28.200;112.870;2023-01-19T09:25:39;13.20;47.90
41953;DHT22;63613;28.200;112.870;2023-01-19T09:28:08;13.10;47.90
41953;DHT22;63613;28.200;112.870;2023-01-19T09:30:37;13.10;48.10
41953;DHT22;63613;28.200;112.870;2023-01-19T09:33:06;13.00;48.20
41953;DHT22;63613;28.200;112.870;2023-01-19T09:35:34;12.90;48.30
41953;DHT22;63613;28.200;112.870;2023-01-19T09:38:05;12.90;48.40
41953;DHT22;63613;28.200;112.870;2023-01-19T09:40:33;12.80;48.60
41953;DHT22;63613;28.200;112.870;2023-01-19T09:46:02;12.70;48.80
41953;DHT22;63613;28.200;112.870;2023-01-19T09:48:52;12.60;49.00
41953;DHT22;63613;28.200;112.870;2023-01-19T09:51:27;12.50;49.00
41953;DHT22;63613;28.200;112.870;2023-01-19T09:56:30;12.40;49.20
41953;DHT22;63613;28.200;112.870;2023-01-19T09:58:58;12.40;49.30
41953;DHT22;63613;28.200;112.870;2023-01-19T10:10:59;12.10;49.80
41953;DHT22;63613;28.200;112.870;2023-01-19T10:13:47;12.10;49.90
41953;DHT22;63613;28.200;112.870;2023-01-19T10:16:52;12.00;50.10
41953;DHT22;63613;28.200;112.870;2023-01-19T10:21:56;11.90;50.30
41953;DHT22;63613;28.200;112.870;2023-01-19T10:24:34;11.90;50.40
41953;DHT22;63613;28.200;112.870;2023-01-19T10:27:14;11.90;50.50
41953;DHT22;63613;28.200;112.870;2023-01-19T10:29:44;11.90;50.60
41953;DHT22;63613;28.200;112.870;2023-01-19T10:32:17;11.80;50.70
41953;DHT22;63613;28.200;112.870;2023-01-19T10:34:47;11.80;50.80
41953;DHT22;63613;28.200;112.870;2023-01-19T10:40:16;11.70;51.00
41953;DHT22;63613;28.200;112.870;2023-01-19T10:42:46;11.60;51.10
41953;DHT22;63613;28.200;112.870;2023-01-19T10:45:29;11.60;51.20
41953;DHT22;63613;28.200;112.870;2023-01-19T10:48:10;11.60;51.30
41953;DHT22;63613;28.200;112.870;2023-01-19T10:51:13;11.50;51.40
41953;DHT22;63613;28.200;112.870;2023-01-19T10:54:13;11.50;51.50
41953;DHT22;63613;28.200;112.870;2023-01-19T10:57:04;11.50;51.60
41953;DHT22;63613;28.200;112.870;2023-01-19T10:59:54;11.40;51.60
41953;DHT22;63613;28.200;112.870;2023-01-19T11:02:56;11.40;51.70
41953;DHT22;63613;28.200;112.870;2023-01-19T11:05:39;11.40;51.80
41953;DHT22;63613;28.200;112.870;2023-01-19T11:08:30;11.40;51.80
41953;DHT22;63613;28.200;112.870;2023-01-19T11:11:51;11.40;51.90
41953;DHT22;63613;28.200;112.870;2023-01-19T11:14:59;11.40;52.00
41953;DHT22;63613;28.200;112.870;2023-01-19T11:17:53;11.30;52.10
41953;DHT22;63613;28.200;112.870;2023-01-19T11:21:14;11.30;52.10
41953;DHT22;63613;28.200;112.870;2023-01-19T11:24:26;11.30;52.20
41953;DHT22;63613;28.200;112.870;2023-01-19T11:27:19;11.20;52.30
41953;DHT22;63613;28.200;112.870;2023-01-19T11:29:49;11.20;52.30
41953;DHT22;63613;28.200;112.870;2023-01-19T11:32:21;11.20;52.40
41953;DHT22;63613;28.200;112.870;2023-01-19T11:35:46;11.10;52.50
41953;DHT22;63613;28.200;112.870;2023-01-19T11:38:15;11.10;52.50
41953;DHT22;63613;28.200;112.870;2023-01-19T11:40:50;11.10;52.60
41953;DHT22;63613;28.200;112.870;2023-01-19T11:43:19;11.10;52.60
41953;DHT22;63613;28.200;112.870;2023-01-19T11:45:46;11.10;52.60
41953;DHT22;63613;28.200;112.870;2023-01-19T11:48:38;11.10;52.70
41953;DHT22;63613;28.200;112.870;2023-01-19T11:51:13;11.10;52.70
41953;DHT22;63613;28.200;112.870;2023-01-19T11:54:01;11.10;52.80
41953;DHT22;63613;28.200;112.870;2023-01-19T11:56:32;11.00;52.80
41953;DHT22;63613;28.200;112.870;2023-01-19T11:59:01;11.00;52.90
41953;DHT22;63613;28.200;112.870;2023-01-19T12:01:40;11.00;52.90
41953;DHT22;63613;28.200;112.870;2023-01-19T12:04:14;11.00;52.90
41953;DHT22;63613;28.200;112.870;2023-01-19T12:06:47;11.00;53.00
41953;DHT22;63613;28.200;112.870;2023-01-19T12:09:30;11.00;53.00
41953;DHT22;63613;28.200;112.870;2023-01-19T12:12:03;11.00;53.00
41953;DHT22;63613;28.200;112.870;2023-01-19T12:14:53;11.00;53.00
41953;DHT22;63613;28.200;112.870;2023-01-19T12:17:43;10.90;53.10
41953;DHT22;63613;28.200;112.870;2023-01-19T12:20:37;10.90;53.10
41953;DHT22;63613;28.200;112.870;2023-01-19T12:23:20;10.90;53.20
41953;DHT22;63613;28.200;112.870;2023-01-19T12:28:41;10.90;53.20
41953;DHT22;63613;28.200;112.870;2023-01-19T12:31:09;10.90;53.30
41953;DHT22;63613;28.200;112.870;2023-01-19T12:33:40;10.90;53.30
41953;DHT22;63613;28.200;112.870;2023-01-19T12:39:23;10.80;53.40
41953;DHT22;63613;28.200;112.870;2023-01-19T12:42:14;10.80;53.40
41953;DHT22;63613;28.200;112.870;2023-01-19T12:44:43;10.80;53.40
41953;DHT22;63613;28.200;112.870;2023-01-19T12:47:17;10.80;53.50
41953;DHT22;63613;28.200;112.870;2023-01-19T12:49:56;10.80;53.50
41953;DHT22;63613;28.200;112.870;2023-01-19T12:54:57;10.80;53.50
41953;DHT22;63613;28.200;112.870;2023-01-19T13:02:54;10.70;53.70
41953;DHT22;63613;28.200;112.870;2023-01-19T13:06:03;10.70;53.70
41953;DHT22;63613;28.200;112.870;2023-01-19T13:08:17;10.70;53.70
41953;DHT22;63613;28.200;112.870;2023-01-19T13:13:42;10.70;53.70
41953;DHT22;63613;28.200;112.870;2023-01-19T13:19:00;10.60;53.80
41953;DHT22;63613;28.200;112.870;2023-01-19T13:21:47;10.70;53.80
41953;DHT22;63613;28.200;112.870;2023-01-19T13:24:21;10.70;53.80
41953;DHT22;63613;28.200;112.870;2023-01-19T13:31:45;10.60;53.80
41953;DHT22;63613;28.200;112.870;2023-01-19T13:34:23;10.60;53.90
41953;DHT22;63613;28.200;112.870;2023-01-19T13:36:53;10.60;53.90
41953;DHT22;63613;28.200;112.870;2023-01-19T13:39:31;10.60;53.80
41953;DHT22;63613;28.200;112.870;2023-01-19T13:42:05;10.60;53.80
41953;DHT22;63613;28.200;112.870;2023-01-19T13:44:39;10.60;53.80
41953;DHT22;63613;28.200;112.870;2023-01-19T13:47:15;10.60;53.90
41953;DHT22;63613;28.200;112.870;2023-01-19T13:49:45;10.60;53.90
41953;DHT22;63613;28.200;112.870;2023-01-19T13:52:24;10.60;53.90
41953;DHT22;63613;28.200;112.870;2023-01-19T13:55:12;10.60;53.90
41953;DHT22;63613;28.200;112.870;2023-01-19T13:57:50;10.60;53.80
41953;DHT22;63613;28.200;112.870;2023-01-19T14:06:40;10.50;53.80
41953;DHT22;63613;28.200;112.870;2023-01-19T14:09:18;10.50;53.80
41953;DHT22;63613;28.200;112.870;2023-01-19T14:12:32;10.50;53.80
41953;DHT22;63613;28.200;112.870;2023-01-19T14:15:00;10.50;53.70
41953;DHT22;63613;28.200;112.870;2023-01-19T14:18:25;10.50;53.70
41953;DHT22;63613;28.200;112.870;2023-01-19T14:23:52;10.40;53.80
41953;DHT22;63613;28.200;112.870;2023-01-19T14:26:41;10.40;53.80
41953;DHT22;63613;28.200;112.870;2023-01-19T14:29:38;10.40;53.80
41953;DHT22;63613;28.200;112.870;2023-01-19T14:37:34;10.40;53.90
41953;DHT22;63613;28.200;112.870;2023-01-19T14:42:57;10.40;54.00
41953;DHT22;63613;28.200;112.870;2023-01-19T14:45:34;10.40;54.10
41953;DHT22;63613;28.200;112.870;2023-01-19T14:48:05;10.40;54.00
41953;DHT22;63613;28.200;112.870;2023-01-19T14:50:40;10.30;53.90
41953;DHT22;63613;28.200;112.870;2023-01-19T14:53:18;10.30;53.90
41953;DHT22;63613;28.200;112.870;2023-01-19T14:55:51;10.30;53.90
41953;DHT22;63613;28.200;112.870;2023-01-19T14:58:20;10.30;53.90
41953;DHT22;63613;28.200;112.870;2023-01-19T15:00:48;10.30;53.90
41953;DHT22;63613;28.200;112.870;2023-01-19T15:03:15;10.30;53.90
41953;DHT22;63613;28.200;112.870;2023-01-19T15:05:45;10.30;54.00
41953;DHT22;63613;28.200;112.870;2023-01-19T15:08:24;10.30;54.00
41953;DHT22;63613;28.200;112.870;2023-01-19T15:10:52;10.30;54.00
41953;DHT22;63613;28.200;112.870;2023-01-19T15:13:23;10.30;54.00
41953;DHT22;63613;28.200;112.870;2023-01-19T15:15:51;10.30;53.90
41953;DHT22;63613;28.200;112.870;2023-01-19T15:18:23;10.30;53.80
41953;DHT22;63613;28.200;112.870;2023-01-19T15:20:54;10.20;53.60
41953;DHT22;63613;28.200;112.870;2023-01-19T15:23:33;10.20;53.60
41953;DHT22;63613;28.200;112.870;2023-01-19T15:26:03;10.20;53.60
41953;DHT22;63613;28.200;112.870;2023-01-19T15:28:30;10.20;53.60
41953;DHT22;63613;28.200;112.870;2023-01-19T15:30:58;10.20;53.50
41953;DHT22;63613;28.200;112.870;2023-01-19T15:33:27;10.20;53.50
41953;DHT22;63613;28.200;112.870;2023-01-19T15:35:58;10.20;53.50
41953;DHT22;63613;28.200;112.870;2023-01-19T15:38:27;10.20;53.40
41953;DHT22;63613;28.200;112.870;2023-01-19T15:40:54;10.20;53.40
41953;DHT22;63613;28.200;112.870;2023-01-19T15:43:21;10.20;53.40
41953;DHT22;63613;28.200;112.870;2023-01-19T15:46:00;10.20;53.40
41953;DHT22;63613;28.200;112.870;2023-01-19T15:48:27;10.10;53.20
41953;DHT22;63613;28.200;112.870;2023-01-19T15:50:56;10.20;53.20
41953;DHT22;63613;28.200;112.870;2023-01-19T15:53:23;10.10;53.30
41953;DHT22;63613;28.200;112.870;2023-01-19T15:55:53;10.10;53.30
41953;DHT22;63613;28.200;112.870;2023-01-19T15:58:22;10.10;53.30
41953;DHT22;63613;28.200;112.870;2023-01-19T16:00:54;10.10;53.30
41953;DHT22;63613;28.200;112.870;2023-01-19T16:03:25;10.10;53.40
41953;DHT22;63613;28.200;112.870;2023-01-19T16:05:52;10.20;53.30
41953;DHT22;63613;28.200;112.870;2023-01-19T16:08:22;10.20;53.30
41953;DHT22;63613;28.200;112.870;2023-01-19T16:10:49;10.20;53.30
41953;DHT22;63613;28.200;112.870;2023-01-19T16:13:15;10.20;53.30
41953;DHT22;63613;28.200;112.870;2023-01-19T16:15:43;10.10;53.40
41953;DHT22;63613;28.200;112.870;2023-01-19T16:18:11;10.10;53.30
41953;DHT22;63613;28.200;112.870;2023-01-19T16:20:39;10.10;53.30
41953;DHT22;63613;28.200;112.870;2023-01-19T16:23:06;10.10;53.40
41953;DHT22;63613;28.200;112.870;2023-01-19T16:25:33;10.10;53.30
41953;DHT22;63613;28.200;112.870;2023-01-19T16:28:01;10.10;53.30
41953;DHT22;63613;28.200;112.870;2023-01-19T16:30:29;10.10;53.30
41953;DHT22;63613;28.200;112.870;2023-01-19T16:32:55;10.10;53.30
41953;DHT22;63613;28.200;112.870;2023-01-19T16:35:22;10.10;53.30
41953;DHT22;63613;28.200;112.870;2023-01-19T16:37:49;10.10;53.20
41953;DHT22;63613;28.200;112.870;2023-01-19T16:40:17;10.10;53.20
41953;DHT22;63613;28.200;112.870;2023-01-19T16:42:45;10.10;53.20
41953;DHT22;63613;28.200;112.870;2023-01-19T16:45:12;10.00;53.10
41953;DHT22;63613;28.200;112.870;2023-01-19T16:47:39;10.10;53.10
41953;DHT22;63613;28.200;112.870;2023-01-19T16:50:09;10.10;53.10
41953;DHT22;63613;28.200;112.870;2023-01-19T16:52:41;10.10;53.10
41953;DHT22;63613;28.200;112.870;2023-01-19T16:55:08;10.10;53.10
41953;DHT22;63613;28.200;112.870;2023-01-19T16:57:37;10.10;53.10
41953;DHT22;63613;28.200;112.870;2023-01-19T17:00:08;10.20;53.10
41953;DHT22;63613;28.200;112.870;2023-01-19T17:02:36;10.10;53.00